Fall Creek, Oregon
Current Conditions -  °F | °C
As of 6:54 AM on Saturday 20 Dec 2014 (Local Time) from KEUG Reporting Station
Light Rain Light Rain  
Wind Chill: 43°   Ceiling: 6000
Heat Index: 49°   Visibility: 10mi
Dew Point: 46°   Wind: 15mph
Humidity: 90%   Direction: 170°S
Pressure: 29.79"   Gusts: NA
Location:  43.96°N, 122.82°W
Report Text: KEUG 201454Z 17013KT 10SM -RA FEW040 BKN060 OVC070 09/08 A2979 RMK AO2 SLP089 P0009 60013 T00940078 56014
Loading
Personal Weather Stations






























Interactive Weather Map New forecast layout! Learn more

10-Day Weather Forecast

Advertisements
Track Severe Weather on mobile